createdAt,value
2022-10-22T00:00:31.642Z,34.38
2022-10-22T00:01:38.862Z,38.75
2022-10-22T00:02:48.715Z,39.06
2022-10-22T00:03:52.906Z,39.19
2022-10-22T00:05:02.052Z,35.75
2022-10-22T00:14:11.286Z,35.50
2022-10-22T00:15:18.242Z,41.60
2022-10-22T00:16:22.689Z,41.00
2022-10-22T00:17:29.787Z,35.19
2022-10-22T00:18:35.531Z,39.81
2022-10-22T00:19:42.174Z,31.94
2022-10-22T00:20:46.301Z,32.88
2022-10-22T00:21:55.030Z,43.38
2022-10-22T00:22:59.180Z,40.80
2022-10-22T00:24:04.603Z,38.00
2022-10-22T00:25:10.264Z,36.44
2022-10-22T00:26:18.735Z,40.38
2022-10-22T00:27:25.829Z,35.88
2022-10-22T00:28:31.019Z,33.50
2022-10-22T00:29:39.382Z,36.94
2022-10-22T00:30:43.424Z,40.19
2022-10-22T00:31:47.681Z,33.44
2022-10-22T00:32:53.237Z,31.19
2022-10-22T00:33:57.414Z,41.31
2022-10-22T00:35:01.424Z,41.37
2022-10-22T00:36:05.759Z,35.69
2022-10-22T00:37:11.352Z,39.44
2022-10-22T00:38:16.054Z,37.63
2022-10-22T00:39:24.341Z,36.13
2022-10-22T00:40:34.657Z,33.80
2022-10-22T00:41:40.033Z,25.06
2022-10-22T00:42:47.830Z,41.00
2022-10-22T00:43:58.061Z,42.25
2022-10-22T00:45:08.334Z,37.44
2022-10-22T00:46:15.417Z,40.94
2022-10-22T00:47:23.208Z,36.88
2022-10-22T00:48:30.292Z,42.81
2022-10-22T00:49:35.830Z,40.44
2022-10-22T00:50:44.419Z,40.81
2022-10-22T00:51:48.496Z,40.00
2022-10-22T00:52:54.095Z,39.75
2022-10-22T00:54:01.086Z,32.69
2022-10-22T00:55:06.510Z,37.81
2022-10-22T00:56:14.096Z,35.06
2022-10-22T00:57:21.530Z,38.69
2022-10-22T00:58:32.951Z,34.06
2022-10-22T00:59:34.338Z,36.19
2022-10-22T01:00:38.667Z,39.13
2022-10-22T01:01:42.733Z,36.94
2022-10-22T01:02:48.270Z,33.50
2022-10-22T01:03:52.586Z,38.56
2022-10-22T01:04:56.722Z,37.00
2022-10-22T01:06:05.823Z,38.31
2022-10-22T01:07:15.562Z,42.27
2022-10-22T01:08:31.423Z,40.44
2022-10-22T01:09:50.310Z,39.38
2022-10-22T01:10:57.499Z,38.06
2022-10-22T01:12:22.367Z,38.67
2022-10-22T01:13:29.261Z,38.00
2022-10-22T01:14:51.572Z,42.56
2022-10-22T01:16:13.498Z,41.63
2022-10-22T01:17:29.209Z,35.75
2022-10-22T01:18:39.008Z,37.63
2022-10-22T01:20:01.775Z,37.44
2022-10-22T01:21:40.794Z,43.63
2022-10-22T01:22:57.815Z,38.60
2022-10-22T01:24:30.439Z,41.47
2022-10-22T01:25:55.412Z,43.38
2022-10-22T01:27:11.176Z,44.40
2022-10-22T01:28:43.403Z,41.80
2022-10-22T01:29:56.559Z,45.27
2022-10-22T01:31:02.157Z,44.63
2022-10-22T01:32:19.842Z,45.80
2022-10-22T01:33:26.272Z,44.63
2022-10-22T01:34:32.793Z,44.33
2022-10-22T01:35:41.446Z,40.88
2022-10-22T01:36:51.133Z,45.47
2022-10-22T01:38:06.811Z,45.69
2022-10-22T01:39:13.610Z,43.81
2022-10-22T01:40:28.383Z,50.00
2022-10-22T01:41:33.776Z,51.25
2022-10-22T01:42:43.041Z,46.37
2022-10-22T01:43:50.598Z,50.56
2022-10-22T01:44:58.929Z,54.00
2022-10-22T01:46:07.048Z,51.06
2022-10-22T01:47:23.039Z,49.67
2022-10-22T01:49:07.185Z,51.50
2022-10-22T01:50:28.214Z,52.31
2022-10-22T01:51:59.237Z,49.60
2022-10-22T01:53:08.830Z,51.44
2022-10-22T01:54:24.756Z,50.69
2022-10-22T01:55:46.191Z,50.56
2022-10-22T01:57:13.926Z,56.07
2022-10-22T01:58:41.781Z,52.94
2022-10-22T01:59:48.838Z,50.88
2022-10-22T02:00:55.870Z,54.06
2022-10-22T02:02:26.865Z,52.75
2022-10-22T02:03:33.826Z,53.50
2022-10-22T02:04:59.067Z,50.53
2022-10-22T02:06:05.964Z,53.87
2022-10-22T02:07:15.318Z,51.56
2022-10-22T02:08:22.304Z,54.00
2022-10-22T02:09:28.993Z,58.44
2022-10-22T02:10:34.075Z,56.31
2022-10-22T02:11:38.966Z,51.73
2022-10-22T02:12:46.546Z,50.25
2022-10-22T02:13:55.039Z,48.50
2022-10-22T02:15:01.417Z,47.75
2022-10-22T02:16:08.027Z,55.00
2022-10-22T02:17:17.873Z,50.19
2022-10-22T02:18:23.619Z,52.93
2022-10-22T02:19:30.151Z,50.06
2022-10-22T02:20:36.410Z,47.81
2022-10-22T02:21:40.759Z,52.00
2022-10-22T02:22:44.846Z,50.25
2022-10-22T02:23:49.773Z,49.44
2022-10-22T02:24:55.762Z,54.44
2022-10-22T02:26:02.361Z,45.53
2022-10-22T02:27:15.098Z,51.75
2022-10-22T02:28:48.991Z,47.19
2022-10-22T02:30:04.790Z,50.06
2022-10-22T02:31:29.613Z,53.67
2022-10-22T02:32:25.305Z,50.38
2022-10-22T02:33:37.861Z,49.87
2022-10-22T02:34:42.186Z,51.88
2022-10-22T02:35:46.999Z,48.56
2022-10-22T02:36:52.498Z,47.60
2022-10-22T02:38:00.150Z,53.69
2022-10-22T02:39:06.224Z,49.13
2022-10-22T02:40:11.435Z,50.44
2022-10-22T02:41:16.936Z,53.19
2022-10-22T02:42:20.894Z,49.25
2022-10-22T02:43:27.874Z,48.75
2022-10-22T02:44:32.051Z,46.56
2022-10-22T02:45:37.058Z,53.94
2022-10-22T02:46:43.324Z,46.94
2022-10-22T02:47:51.206Z,45.00
2022-10-22T02:48:55.077Z,45.69
2022-10-22T02:50:00.339Z,49.25
2022-10-22T02:51:04.481Z,46.53
2022-10-22T02:52:08.864Z,46.00
2022-10-22T02:53:12.741Z,47.88
2022-10-22T02:54:16.680Z,51.06
2022-10-22T02:55:20.615Z,45.88
2022-10-22T02:56:24.539Z,46.75
2022-10-22T02:57:28.471Z,45.69
2022-10-22T02:58:32.347Z,46.37
2022-10-22T02:59:36.239Z,45.81
2022-10-22T03:00:40.262Z,49.19
2022-10-22T03:01:44.267Z,43.81
2022-10-22T03:02:48.133Z,43.93
2022-10-22T03:03:52.067Z,45.56
2022-10-22T03:04:55.943Z,46.07
2022-10-22T03:05:59.900Z,46.75
2022-10-22T03:07:03.830Z,45.19
2022-10-22T03:08:07.986Z,46.81
2022-10-22T03:09:12.029Z,46.00
2022-10-22T03:10:17.553Z,44.75
2022-10-22T03:11:23.726Z,43.87
2022-10-22T03:12:27.760Z,44.33
2022-10-22T03:13:31.626Z,44.80
2022-10-22T03:14:36.204Z,44.88
2022-10-22T03:15:42.048Z,33.88
2022-10-22T03:16:45.731Z,44.94
2022-10-22T03:17:49.686Z,50.06
2022-10-22T03:18:53.550Z,44.25
2022-10-22T03:19:59.040Z,42.73
2022-10-22T03:21:11.508Z,41.81
2022-10-22T03:23:49.434Z,44.38
2022-10-22T03:24:55.892Z,40.33
2022-10-22T03:26:00.412Z,39.81
2022-10-22T03:27:04.531Z,37.81
2022-10-22T03:28:14.637Z,39.56
2022-10-22T03:29:27.105Z,40.60
2022-10-22T03:30:31.186Z,28.47
2022-10-22T03:31:35.068Z,39.00
2022-10-22T03:32:39.031Z,42.47
2022-10-22T03:33:42.945Z,41.00
2022-10-22T03:34:46.935Z,47.69
2022-10-22T03:35:50.973Z,35.94
2022-10-22T03:36:57.270Z,37.00
2022-10-22T03:38:02.326Z,43.19
2022-10-22T03:39:07.509Z,41.75
2022-10-22T03:40:12.906Z,44.20
2022-10-22T03:41:18.217Z,38.06
2022-10-22T03:42:22.957Z,45.40
2022-10-22T03:43:27.143Z,38.19
2022-10-22T03:44:35.811Z,41.19
2022-10-22T03:45:41.177Z,42.13
2022-10-22T03:46:47.667Z,41.81
2022-10-22T03:47:51.540Z,41.37
2022-10-22T03:48:55.442Z,34.06
2022-10-22T03:50:00.981Z,37.33
2022-10-22T03:51:05.109Z,37.25
2022-10-22T03:52:14.456Z,38.63
2022-10-22T03:53:18.375Z,38.13
2022-10-22T03:54:22.307Z,40.07
2022-10-22T03:55:27.832Z,41.44
2022-10-22T03:56:32.543Z,36.38
2022-10-22T03:57:36.645Z,39.81
2022-10-22T03:58:41.718Z,37.38
2022-10-22T03:59:48.459Z,43.38
2022-10-22T04:00:52.425Z,40.56
2022-10-22T04:01:56.300Z,42.25
2022-10-22T04:03:00.164Z,43.81
2022-10-22T04:04:06.641Z,41.44
2022-10-22T04:05:11.307Z,39.60
2022-10-22T04:06:15.842Z,41.25
2022-10-22T04:07:19.771Z,43.69
2022-10-22T04:08:29.318Z,38.00
2022-10-22T04:09:34.928Z,41.19
2022-10-22T04:10:40.917Z,42.40
2022-10-22T04:11:44.571Z,40.81
2022-10-22T04:12:50.937Z,41.13
2022-10-22T04:13:54.880Z,41.63
2022-10-22T04:14:58.806Z,44.07
2022-10-22T04:16:11.197Z,42.50
2022-10-22T04:17:18.158Z,42.69
2022-10-22T04:18:23.849Z,35.81
2022-10-22T04:19:27.834Z,39.69
2022-10-22T04:20:31.769Z,38.81
2022-10-22T04:21:37.402Z,40.94
2022-10-22T04:22:41.313Z,31.07
2022-10-22T04:23:47.324Z,38.47
2022-10-22T04:26:04.436Z,41.56
2022-10-22T04:27:08.290Z,40.80
2022-10-22T04:28:12.197Z,42.94
2022-10-22T04:29:16.540Z,41.88
2022-10-22T04:30:20.719Z,37.94
2022-10-22T04:31:32.245Z,38.19
2022-10-22T04:32:33.280Z,38.00
2022-10-22T04:33:37.798Z,33.38
2022-10-22T04:34:44.069Z,43.00
2022-10-22T04:35:49.481Z,41.94
2022-10-22T04:36:53.384Z,31.94
2022-10-22T04:38:00.027Z,35.88
2022-10-22T04:39:05.681Z,37.94
2022-10-22T04:40:10.827Z,41.94
2022-10-22T04:41:20.555Z,36.40
2022-10-22T04:42:24.541Z,33.06
2022-10-22T04:43:30.026Z,36.75
2022-10-22T04:44:34.156Z,35.13
2022-10-22T04:45:39.518Z,36.50
2022-10-22T04:46:45.162Z,33.31
2022-10-22T04:47:50.870Z,35.53
2022-10-22T04:48:57.953Z,37.56
2022-10-22T04:50:04.793Z,34.75
2022-10-22T04:51:11.752Z,36.56
2022-10-22T04:52:17.351Z,38.07
2022-10-22T04:53:22.825Z,34.19
2022-10-22T04:54:29.090Z,35.06
2022-10-22T04:57:36.488Z,37.19
2022-10-22T04:58:15.518Z,34.63
2022-10-22T04:58:50.749Z,36.94
2022-10-22T04:59:08.837Z,33.50
2022-10-22T05:00:15.900Z,34.50
2022-10-22T05:01:25.343Z,37.38
2022-10-22T05:02:29.375Z,35.75
2022-10-22T05:03:34.917Z,34.94
2022-10-22T05:04:38.874Z,34.94
2022-10-22T05:05:42.800Z,31.75
2022-10-22T05:06:46.959Z,35.38
2022-10-22T05:07:52.380Z,34.25
2022-10-22T05:09:02.915Z,33.75
2022-10-22T05:10:09.088Z,32.50
2022-10-22T05:11:18.906Z,39.56
2022-10-22T05:12:22.903Z,38.27
2022-10-22T05:13:29.356Z,33.94
2022-10-22T05:14:34.107Z,34.00
2022-10-22T05:15:39.498Z,29.93
2022-10-22T05:16:47.357Z,30.94
2022-10-22T05:17:52.532Z,37.69
2022-10-22T05:18:58.154Z,36.31
2022-10-22T05:20:04.665Z,33.31
2022-10-22T05:21:11.680Z,33.00
2022-10-22T05:22:17.122Z,30.94
2022-10-22T05:23:24.190Z,31.94
2022-10-22T05:24:32.014Z,30.75
2022-10-22T05:25:39.745Z,35.69
2022-10-22T05:26:43.954Z,38.13
2022-10-22T05:27:49.993Z,35.44
2022-10-22T05:28:54.287Z,37.00
2022-10-22T05:29:58.328Z,33.88
2022-10-22T05:31:02.884Z,36.33
2022-10-22T05:32:06.904Z,39.56
2022-10-22T05:33:10.810Z,24.06
2022-10-22T05:34:15.615Z,37.06
2022-10-22T05:35:19.532Z,38.73
2022-10-22T05:36:24.736Z,35.44
2022-10-22T05:37:28.693Z,32.38
2022-10-22T05:38:34.627Z,34.94
2022-10-22T05:39:38.603Z,29.12
2022-10-22T05:40:44.117Z,33.44
2022-10-22T05:41:48.011Z,31.94
2022-10-22T05:42:51.962Z,33.56
2022-10-22T05:43:57.763Z,34.81
2022-10-22T05:45:01.695Z,30.37
2022-10-22T05:46:08.138Z,30.25
2022-10-22T05:47:13.631Z,34.88
2022-10-22T05:48:17.550Z,32.69
2022-10-22T05:49:21.464Z,27.94
2022-10-22T05:50:25.371Z,32.81
2022-10-22T05:51:31.490Z,31.94
2022-10-22T05:52:35.365Z,35.63
2022-10-22T05:53:42.050Z,32.81
2022-10-22T05:54:45.938Z,39.44
2022-10-22T05:55:51.463Z,33.40
2022-10-22T05:56:56.934Z,36.27
2022-10-22T05:58:00.875Z,29.87
2022-10-22T05:59:05.367Z,31.56
2022-10-22T06:00:12.809Z,29.06
2022-10-22T06:02:39.042Z,33.25
2022-10-22T06:03:08.096Z,26.75
2022-10-22T06:03:46.662Z,29.69
2022-10-22T06:04:52.035Z,28.81
2022-10-22T06:05:59.093Z,32.40
2022-10-22T06:07:03.377Z,30.06
2022-10-22T06:08:07.293Z,32.67
2022-10-22T06:09:19.967Z,31.00
2022-10-22T06:10:24.639Z,29.75
2022-10-22T06:11:31.170Z,25.75
2022-10-22T06:12:34.526Z,29.40
2022-10-22T06:13:38.383Z,32.60
2022-10-22T06:14:42.257Z,30.25
2022-10-22T06:15:46.105Z,27.69
2022-10-22T06:16:51.183Z,27.19
2022-10-22T06:18:08.900Z,32.40
2022-10-22T06:19:04.350Z,31.62
2022-10-22T06:20:11.098Z,26.12
2022-10-22T06:21:16.402Z,34.63
2022-10-22T06:22:23.292Z,29.31
2022-10-22T06:23:28.952Z,32.75
2022-10-22T06:24:32.975Z,26.75
2022-10-22T06:25:36.922Z,32.19
2022-10-22T06:26:41.182Z,27.94
2022-10-22T06:27:46.612Z,29.19
2022-10-22T06:28:52.079Z,30.00
2022-10-22T06:29:57.691Z,31.69
2022-10-22T06:31:03.617Z,28.12
2022-10-22T06:32:07.565Z,30.40
2022-10-22T06:33:12.887Z,32.69
2022-10-22T06:34:17.560Z,30.93
2022-10-22T06:35:21.460Z,28.19
2022-10-22T06:36:26.900Z,32.13
2022-10-22T06:37:30.813Z,31.56
2022-10-22T06:38:36.351Z,33.31
2022-10-22T06:39:44.853Z,29.06
2022-10-22T06:40:51.842Z,27.06
2022-10-22T06:41:55.729Z,34.60
2022-10-22T06:43:02.582Z,29.50
2022-10-22T06:44:06.489Z,37.63
2022-10-22T06:45:13.344Z,28.25
2022-10-22T06:46:20.994Z,30.37
2022-10-22T06:47:26.301Z,29.63
2022-10-22T06:48:32.567Z,34.67
2022-10-22T06:49:36.568Z,31.19
2022-10-22T06:50:41.889Z,31.87
2022-10-22T06:51:46.345Z,31.60
2022-10-22T06:52:50.682Z,29.75
2022-10-22T06:53:58.979Z,31.87
2022-10-22T06:55:02.940Z,34.81
2022-10-22T06:56:12.225Z,31.06
2022-10-22T06:57:16.164Z,27.13
2022-10-22T06:58:20.046Z,29.06
2022-10-22T06:59:27.803Z,28.19
2022-10-22T07:01:41.760Z,30.44
2022-10-22T07:02:50.870Z,29.00
2022-10-22T07:03:57.655Z,30.44
2022-10-22T07:06:19.217Z,23.31
2022-10-22T07:07:32.463Z,28.94
2022-10-22T07:08:29.433Z,27.13
2022-10-22T07:09:35.811Z,29.94
2022-10-22T07:10:40.877Z,29.56
2022-10-22T07:11:46.290Z,27.69
2022-10-22T07:12:50.319Z,31.19
2022-10-22T07:14:04.116Z,29.81
2022-10-22T07:15:09.718Z,30.19
2022-10-22T07:16:20.564Z,30.88
2022-10-22T07:17:28.687Z,31.62
2022-10-22T07:32:49.269Z,32.31
2022-10-22T07:32:54.812Z,35.13
2022-10-22T07:35:02.785Z,29.44
2022-10-22T07:36:09.266Z,30.25
2022-10-22T07:37:19.304Z,30.06
2022-10-22T07:52:00.895Z,21.06
2022-10-22T07:53:07.471Z,24.56
2022-10-22T07:54:11.792Z,20.94
2022-10-22T07:55:19.031Z,21.62
2022-10-22T07:56:23.077Z,26.06
2022-10-22T07:57:27.162Z,20.37
2022-10-22T07:58:35.559Z,19.81
2022-10-22T07:59:41.645Z,20.44
2022-10-22T08:00:47.554Z,21.31
2022-10-22T08:01:53.691Z,18.62
2022-10-22T08:02:57.622Z,17.87
2022-10-22T08:04:03.294Z,18.50
2022-10-22T08:05:09.435Z,17.44
2022-10-22T08:06:20.305Z,21.44
2022-10-22T08:07:22.509Z,21.06
2022-10-22T08:08:29.724Z,18.75
2022-10-22T08:09:32.626Z,17.81
2022-10-22T08:10:36.688Z,19.81
2022-10-22T08:11:40.593Z,19.06
2022-10-22T08:12:47.455Z,17.25
2022-10-22T08:13:55.296Z,21.00
2022-10-22T08:14:59.260Z,22.50
2022-10-22T08:16:03.237Z,19.00
2022-10-22T08:17:14.089Z,18.56
2022-10-22T08:18:20.358Z,22.50
2022-10-22T08:19:24.347Z,15.44
2022-10-22T08:20:29.886Z,21.81
2022-10-22T08:21:33.834Z,20.94
2022-10-22T08:22:37.684Z,18.81
2022-10-22T08:23:41.618Z,14.63
2022-10-22T08:24:45.477Z,14.69
2022-10-22T08:56:46.789Z,19.80
2022-10-22T08:57:53.673Z,19.87
2022-10-22T08:59:03.198Z,17.12
2022-10-22T09:00:32.320Z,18.75
2022-10-22T09:01:40.817Z,15.94
2022-10-22T09:03:11.652Z,26.75
2022-10-22T09:04:30.508Z,19.75
2022-10-22T09:05:42.886Z,21.62
2022-10-22T09:06:49.537Z,25.62
2022-10-22T09:07:52.683Z,18.81
2022-10-22T09:08:59.063Z,18.25
2022-10-22T09:10:07.521Z,30.37
2022-10-22T09:11:32.556Z,29.94
2022-10-22T09:12:38.163Z,29.94
2022-10-22T09:13:44.943Z,16.50
2022-10-22T09:14:50.803Z,33.00
2022-10-22T09:16:03.410Z,28.62
2022-10-22T09:17:31.000Z,15.50
2022-10-22T09:18:44.113Z,20.87
2022-10-22T09:19:56.353Z,27.87
2022-10-22T09:21:03.307Z,25.75
2022-10-22T09:22:40.588Z,21.94
2022-10-22T09:24:05.552Z,23.19
2022-10-22T09:25:20.147Z,21.69
2022-10-22T09:26:25.344Z,22.13
2022-10-22T09:27:32.162Z,18.81
2022-10-22T09:28:36.005Z,17.25
2022-10-22T09:29:41.711Z,16.81
2022-10-22T09:30:46.067Z,16.81
2022-10-22T09:31:50.372Z,17.69
2022-10-22T09:33:08.916Z,16.62
2022-10-22T09:34:15.277Z,19.44
2022-10-22T09:35:22.152Z,18.25
2022-10-22T09:36:29.702Z,21.00
2022-10-22T09:37:33.531Z,19.44
2022-10-22T09:38:43.349Z,21.69
2022-10-22T09:39:53.758Z,17.94
2022-10-22T09:41:01.975Z,18.81
2022-10-22T09:42:07.252Z,20.56
2022-10-22T09:43:13.468Z,20.31
2022-10-22T09:44:19.047Z,19.75
2022-10-22T09:45:27.032Z,18.06
2022-10-22T09:46:34.011Z,15.25
2022-10-22T09:48:48.959Z,17.19
2022-10-22T09:49:55.837Z,20.00
2022-10-22T09:51:08.883Z,23.12
2022-10-22T09:52:18.431Z,24.37
2022-10-22T09:53:33.253Z,25.25
2022-10-22T09:54:42.611Z,23.06
2022-10-22T09:55:52.258Z,16.62
2022-10-22T09:57:08.145Z,18.12
2022-10-22T09:58:14.206Z,20.00
2022-10-22T09:59:23.414Z,18.06
2022-10-22T10:00:28.225Z,23.31
2022-10-22T10:01:36.744Z,19.37
2022-10-22T10:02:43.304Z,14.38
2022-10-22T10:03:49.465Z,21.25
2022-10-22T10:04:56.556Z,21.75
2022-10-22T10:06:05.029Z,19.06
2022-10-22T10:07:16.730Z,22.31
2022-10-22T10:08:22.548Z,32.88
2022-10-22T10:09:28.345Z,25.25
2022-10-22T10:10:40.764Z,19.75
2022-10-22T10:11:47.724Z,23.19
2022-10-22T10:27:52.044Z,20.69
2022-10-22T10:28:27.805Z,18.37
2022-10-22T10:29:55.549Z,23.44
2022-10-22T10:31:11.549Z,20.00
2022-10-22T10:32:44.094Z,20.50
2022-10-22T10:34:04.668Z,22.00
2022-10-22T10:35:20.778Z,18.75
2022-10-22T10:36:56.540Z,19.87
2022-10-22T10:38:12.541Z,22.06
2022-10-22T10:39:32.522Z,22.81
2022-10-22T10:40:57.345Z,25.25
2022-10-22T10:42:08.540Z,29.00
2022-10-22T10:43:21.622Z,25.19
2022-10-22T10:44:40.289Z,26.50
2022-10-22T10:46:02.863Z,27.53
2022-10-22T10:47:18.622Z,24.06
2022-10-22T10:48:31.455Z,24.69
2022-10-22T10:49:36.532Z,21.50
2022-10-22T10:50:49.070Z,20.06
2022-10-22T10:52:20.493Z,23.31
2022-10-22T10:53:55.584Z,26.47
2022-10-22T10:55:20.657Z,24.12
2022-10-22T10:56:40.882Z,22.56
2022-10-22T10:57:56.660Z,22.81
2022-10-22T10:59:09.435Z,25.25
2022-10-22T11:59:02.297Z,17.31
2022-10-22T12:00:33.324Z,18.75
2022-10-22T12:01:45.325Z,19.12
2022-10-22T12:02:52.209Z,28.75
2022-10-22T12:04:01.831Z,23.19
2022-10-22T12:05:20.699Z,25.69
2022-10-22T12:06:30.598Z,21.56
2022-10-22T12:07:39.087Z,22.13
2022-10-22T12:08:51.611Z,23.69
2022-10-22T12:09:57.094Z,20.50
2022-10-22T12:11:07.148Z,19.12
2022-10-22T12:12:16.310Z,20.81
2022-10-22T12:13:30.681Z,20.00
2022-10-22T12:14:40.158Z,20.81
2022-10-22T12:15:49.476Z,16.75
2022-10-22T12:17:05.066Z,22.44
2022-10-22T12:18:10.894Z,24.19
2022-10-22T12:19:20.202Z,22.94
2022-10-22T12:20:26.278Z,20.81
2022-10-22T12:21:31.908Z,29.37
2022-10-22T12:22:36.423Z,24.94
2022-10-22T12:23:40.841Z,33.75
2022-10-22T12:24:53.653Z,33.81
2022-10-22T12:25:58.233Z,38.19
2022-10-22T12:27:04.757Z,30.94
2022-10-22T12:28:13.160Z,32.31
2022-10-22T12:29:20.947Z,24.63
2022-10-22T12:30:27.528Z,25.25
2022-10-22T12:31:36.408Z,21.94
2022-10-22T12:32:41.399Z,24.94
2022-10-22T12:33:45.378Z,21.19
2022-10-22T12:34:51.280Z,19.56
2022-10-22T12:35:55.997Z,21.00
2022-10-22T12:37:01.387Z,22.37
2022-10-22T12:38:13.626Z,19.50
2022-10-22T12:39:20.611Z,20.37
2022-10-22T12:40:30.028Z,18.31
2022-10-22T12:41:36.417Z,21.94
2022-10-22T12:42:41.844Z,18.37
2022-10-22T12:43:47.248Z,16.06
2022-10-22T12:44:54.100Z,18.12
2022-10-22T12:46:01.331Z,19.69
2022-10-22T12:47:08.642Z,18.94
2022-10-22T12:48:25.308Z,20.69
2022-10-22T12:49:42.042Z,16.81
2022-10-22T12:50:49.017Z,20.31
2022-10-22T12:51:52.968Z,19.44
2022-10-22T12:52:56.808Z,15.06
2022-10-22T12:54:09.862Z,18.06
2022-10-22T12:55:18.595Z,17.94
2022-10-22T12:56:34.753Z,18.94
2022-10-22T12:57:38.794Z,22.19
2022-10-22T12:58:46.536Z,21.19
2022-10-22T12:59:52.276Z,20.62
2022-10-22T13:00:58.031Z,22.19
2022-10-22T13:02:04.230Z,18.56
2022-10-22T13:03:10.157Z,22.50
2022-10-22T13:04:22.870Z,19.06
2022-10-22T13:05:28.789Z,19.19
2022-10-22T13:06:35.794Z,20.81
2022-10-22T13:07:51.496Z,18.00
2022-10-22T13:09:04.330Z,20.62
2022-10-22T13:10:30.190Z,22.00
2022-10-22T13:11:45.488Z,21.00
2022-10-22T13:12:57.503Z,12.00
2022-10-22T13:14:27.041Z,16.62
2022-10-22T13:15:36.939Z,17.87
2022-10-22T13:16:41.017Z,22.44
2022-10-22T13:17:45.228Z,19.62
2022-10-22T13:18:50.555Z,20.19
2022-10-22T13:19:57.474Z,21.69
2022-10-22T13:21:04.894Z,18.69
2022-10-22T13:22:33.213Z,17.62
2022-10-22T13:23:37.136Z,26.00
2022-10-22T13:24:44.104Z,32.56
2022-10-22T13:26:03.189Z,24.94
2022-10-22T13:27:09.344Z,21.06
2022-10-22T13:28:22.080Z,26.50
2022-10-22T13:29:26.292Z,21.00
2022-10-22T13:30:33.019Z,23.62
2022-10-22T13:31:37.434Z,21.12
2022-10-22T13:32:41.463Z,26.12
2022-10-22T13:33:48.240Z,18.87
2022-10-22T13:34:52.092Z,19.44
2022-10-22T13:35:57.835Z,22.44
2022-10-22T13:37:03.176Z,27.62
2022-10-22T13:38:18.620Z,25.69
2022-10-22T13:39:24.786Z,21.19
2022-10-22T13:40:28.958Z,25.56
2022-10-22T13:41:34.494Z,25.81
2022-10-22T13:42:38.479Z,22.50
2022-10-22T13:43:42.467Z,25.31
2022-10-22T13:44:46.480Z,30.81
2022-10-22T13:46:00.755Z,27.13
2022-10-22T13:47:09.278Z,21.37
2022-10-22T13:48:21.559Z,21.75
2022-10-22T13:49:26.733Z,28.62
2022-10-22T13:50:30.836Z,28.00
2022-10-22T13:51:36.889Z,23.94
2022-10-22T13:52:55.604Z,25.88
2022-10-22T13:53:59.709Z,28.87
2022-10-22T13:55:15.411Z,47.33
2022-10-22T13:56:21.081Z,48.19
2022-10-22T13:57:26.657Z,53.13
2022-10-22T13:58:30.620Z,45.88
2022-10-22T13:59:34.485Z,39.38
2022-10-22T14:00:41.562Z,38.69
2022-10-22T14:01:51.101Z,33.67
2022-10-22T14:02:57.993Z,30.94
2022-10-22T14:05:11.469Z,22.62
2022-10-22T14:05:42.075Z,23.31
2022-10-22T14:06:19.801Z,33.88
2022-10-22T14:07:25.570Z,49.63
2022-10-22T14:08:29.792Z,50.81
2022-10-22T14:09:33.691Z,49.81
2022-10-22T14:10:37.645Z,53.81
2022-10-22T14:11:41.610Z,34.25
2022-10-22T14:12:50.777Z,31.25
2022-10-22T14:13:51.752Z,28.31
2022-10-22T14:16:01.100Z,33.56
2022-10-22T14:17:08.481Z,28.50
2022-10-22T14:18:22.648Z,37.44
2022-10-22T14:19:26.586Z,37.07
2022-10-22T14:20:33.662Z,34.50
2022-10-22T14:21:38.540Z,37.81
2022-10-22T14:22:42.600Z,33.56
2022-10-22T14:23:49.065Z,32.63
2022-10-22T14:24:55.125Z,34.31
2022-10-22T14:25:59.658Z,33.50
2022-10-22T14:27:03.566Z,39.06
2022-10-22T14:28:08.887Z,39.13
2022-10-22T14:29:12.757Z,33.94
2022-10-22T14:30:20.984Z,42.62
2022-10-22T14:31:25.235Z,45.07
2022-10-22T14:32:29.556Z,47.20
2022-10-22T14:33:34.740Z,39.93
2022-10-22T14:34:40.504Z,60.38
2022-10-22T14:35:47.653Z,61.25
2022-10-22T14:36:51.661Z,56.75
2022-10-22T14:37:55.580Z,53.87
2022-10-22T14:38:59.526Z,49.88
2022-10-22T14:40:03.631Z,57.19
2022-10-22T14:41:13.381Z,56.63
2022-10-22T14:42:17.656Z,53.38
2022-10-22T14:43:30.242Z,52.88
2022-10-22T14:44:36.191Z,46.31
2022-10-22T14:45:39.820Z,46.00
2022-10-22T14:46:43.812Z,48.38
2022-10-22T14:47:48.018Z,41.00
2022-10-22T14:48:52.005Z,44.81
2022-10-22T14:49:57.524Z,44.25
2022-10-22T14:51:03.071Z,60.80
2022-10-22T14:52:10.617Z,66.37
2022-10-22T14:53:15.065Z,91.00
2022-10-22T14:54:20.554Z,70.69
2022-10-22T14:55:24.475Z,68.87
2022-10-22T14:56:28.533Z,67.07
2022-10-22T14:57:36.415Z,60.44
2022-10-22T14:58:42.148Z,67.62
2022-10-22T14:59:45.994Z,61.40
2022-10-22T15:00:55.274Z,62.06
2022-10-22T15:01:57.916Z,59.38
2022-10-22T15:03:04.260Z,56.56
2022-10-22T15:04:07.652Z,51.50
2022-10-22T15:05:11.785Z,51.19
2022-10-22T15:06:16.201Z,56.20
2022-10-22T15:07:20.172Z,58.56
2022-10-22T15:08:24.317Z,61.56
2022-10-22T15:09:28.214Z,57.13
2022-10-22T15:10:32.174Z,42.06
2022-10-22T15:11:36.030Z,51.20
2022-10-22T15:12:40.030Z,61.47
2022-10-22T15:13:44.192Z,60.63
2022-10-22T15:14:48.478Z,22.13
2022-10-22T15:15:52.426Z,59.19
2022-10-22T15:16:56.657Z,57.88
2022-10-22T15:18:00.596Z,52.44
2022-10-22T15:19:04.513Z,53.06
2022-10-22T15:20:08.717Z,51.27
2022-10-22T15:21:15.821Z,47.38
2022-10-22T15:22:20.199Z,55.00
2022-10-22T15:23:24.227Z,63.25
2022-10-22T15:24:28.133Z,61.37
2022-10-22T15:25:32.869Z,56.31
2022-10-22T15:26:36.819Z,64.13
2022-10-22T15:27:42.310Z,99.60
2022-10-22T15:28:48.907Z,80.40
2022-10-22T15:29:52.964Z,72.73
2022-10-22T15:30:59.641Z,69.75
2022-10-22T15:32:03.995Z,68.62
2022-10-22T15:33:09.528Z,57.94
2022-10-22T15:34:16.856Z,55.13
2022-10-22T15:35:20.791Z,54.33
2022-10-22T15:36:24.808Z,53.63
2022-10-22T15:37:28.914Z,49.06
2022-10-22T15:38:32.785Z,58.06
2022-10-22T15:39:38.686Z,43.50
2022-10-22T15:40:44.441Z,60.33
2022-10-22T15:41:50.055Z,66.31
2022-10-22T15:42:55.393Z,65.37
2022-10-22T15:43:59.534Z,65.12
2022-10-22T15:45:03.695Z,66.93
2022-10-22T15:46:13.723Z,67.93
2022-10-22T15:47:23.608Z,68.13
2022-10-22T15:48:27.314Z,66.53
2022-10-22T15:49:33.959Z,61.60
2022-10-22T15:50:40.854Z,65.27
2022-10-22T15:51:45.301Z,62.20
2022-10-22T15:52:49.175Z,66.87
2022-10-22T15:53:55.781Z,73.80
2022-10-22T15:55:00.961Z,67.93
2022-10-22T15:56:08.787Z,64.31
2022-10-22T15:57:14.289Z,69.25
2022-10-22T15:58:18.209Z,67.44
2022-10-22T15:59:22.220Z,67.75
2022-10-22T16:00:26.235Z,75.00
2022-10-22T16:01:31.889Z,74.69
2022-10-22T16:02:38.348Z,73.67
2022-10-22T16:03:42.698Z,72.19
2022-10-22T16:04:46.613Z,69.27
2022-10-22T16:05:53.921Z,55.13
2022-10-22T16:06:58.379Z,63.47
2022-10-22T16:08:02.465Z,64.50
2022-10-22T16:09:09.454Z,67.06
2022-10-22T16:10:13.897Z,72.47
2022-10-22T16:11:20.382Z,58.87
2022-10-22T16:12:24.320Z,63.81
2022-10-22T16:13:28.280Z,65.73
2022-10-22T16:14:32.150Z,72.19
2022-10-22T16:15:36.097Z,79.67
2022-10-22T16:16:46.035Z,74.07
2022-10-22T16:17:51.662Z,66.94
2022-10-22T16:18:57.042Z,64.56
2022-10-22T16:20:01.045Z,66.31
2022-10-22T16:21:05.085Z,64.20
2022-10-22T16:22:10.435Z,71.62
2022-10-22T16:23:14.365Z,74.27
2022-10-22T16:24:18.379Z,72.37
2022-10-22T16:25:22.276Z,76.87
2022-10-22T16:26:26.281Z,79.06
2022-10-22T16:27:31.671Z,76.07
2022-10-22T16:28:35.997Z,76.56
2022-10-22T16:29:40.007Z,75.62
2022-10-22T16:30:44.181Z,79.75
2022-10-22T16:31:48.132Z,71.81
2022-10-22T16:32:53.514Z,82.88
2022-10-22T16:33:59.490Z,79.62
2022-10-22T16:35:04.865Z,79.47
2022-10-22T16:36:10.981Z,82.33
2022-10-22T16:37:14.907Z,83.13
2022-10-22T16:38:18.776Z,82.31
2022-10-22T16:39:23.386Z,91.13
2022-10-22T16:40:27.694Z,89.50
2022-10-22T16:41:32.004Z,89.25
2022-10-22T16:42:35.961Z,95.33
2022-10-22T16:43:40.836Z,87.31
2022-10-22T16:44:44.849Z,77.50
2022-10-22T16:45:50.407Z,98.67
2022-10-22T16:46:54.934Z,96.40
2022-10-22T16:47:59.486Z,109.60
2022-10-22T16:49:03.590Z,95.53
2022-10-22T16:50:08.486Z,104.33
2022-10-22T16:51:16.609Z,104.81
2022-10-22T16:52:22.225Z,122.33
2022-10-22T16:53:26.402Z,121.87
2022-10-22T16:54:30.535Z,135.27
2022-10-22T16:55:36.641Z,144.13
2022-10-22T16:56:40.825Z,154.20
2022-10-22T16:57:46.316Z,157.20